sensor_id;sensor_type;location;lat;lon;timestamp;P1;durP1;ratioP1;P2;durP2;ratioP2
55545;SDS011;44768;50.298;127.520;2022-10-31T00:03:39;70.25;;;44.60;;
55545;SDS011;44768;50.298;127.520;2022-10-31T00:14:01;66.88;;;43.13;;
55545;SDS011;44768;50.298;127.520;2022-10-31T00:19:03;77.82;;;47.58;;
55545;SDS011;44768;50.298;127.520;2022-10-31T00:34:44;73.15;;;44.80;;
55545;SDS011;44768;50.298;127.520;2022-10-31T00:39:45;80.03;;;51.07;;
55545;SDS011;44768;50.298;127.520;2022-10-31T01:06:09;89.25;;;53.03;;
55545;SDS011;44768;50.298;127.520;2022-10-31T01:11:12;78.32;;;49.28;;
55545;SDS011;44768;50.298;127.520;2022-10-31T01:16:15;78.70;;;50.05;;
55545;SDS011;44768;50.298;127.520;2022-10-31T01:21:20;84.88;;;51.85;;
55545;SDS011;44768;50.298;127.520;2022-10-31T01:26:23;76.90;;;51.42;;
55545;SDS011;44768;50.298;127.520;2022-10-31T01:31:26;84.07;;;53.88;;
55545;SDS011;44768;50.298;127.520;2022-10-31T01:36:29;84.05;;;54.47;;
55545;SDS011;44768;50.298;127.520;2022-10-31T01:41:35;83.28;;;53.65;;
55545;SDS011;44768;50.298;127.520;2022-10-31T01:46:38;83.65;;;54.90;;
55545;SDS011;44768;50.298;127.520;2022-10-31T01:51:47;89.32;;;55.35;;
55545;SDS011;44768;50.298;127.520;2022-10-31T01:56:51;89.85;;;55.88;;
55545;SDS011;44768;50.298;127.520;2022-10-31T02:01:54;88.40;;;57.22;;
55545;SDS011;44768;50.298;127.520;2022-10-31T02:07:00;93.75;;;56.55;;
55545;SDS011;44768;50.298;127.520;2022-10-31T02:12:03;81.53;;;56.50;;
55545;SDS011;44768;50.298;127.520;2022-10-31T02:17:05;82.28;;;58.58;;
55545;SDS011;44768;50.298;127.520;2022-10-31T02:22:16;84.97;;;58.00;;
55545;SDS011;44768;50.298;127.520;2022-10-31T02:43:03;96.40;;;61.42;;
55545;SDS011;44768;50.298;127.520;2022-10-31T02:48:10;89.30;;;57.72;;
55545;SDS011;44768;50.298;127.520;2022-10-31T02:53:16;92.18;;;58.40;;
55545;SDS011;44768;50.298;127.520;2022-10-31T02:58:20;89.40;;;58.00;;
55545;SDS011;44768;50.298;127.520;2022-10-31T03:08:26;87.65;;;59.05;;
55545;SDS011;44768;50.298;127.520;2022-10-31T03:23:49;81.88;;;55.75;;
55545;SDS011;44768;50.298;127.520;2022-10-31T03:28:56;83.00;;;57.58;;
55545;SDS011;44768;50.298;127.520;2022-10-31T03:33:58;84.97;;;54.65;;
55545;SDS011;44768;50.298;127.520;2022-10-31T03:39:01;83.15;;;55.28;;
55545;SDS011;44768;50.298;127.520;2022-10-31T03:44:05;84.80;;;56.75;;
55545;SDS011;44768;50.298;127.520;2022-10-31T03:49:07;80.30;;;53.35;;
55545;SDS011;44768;50.298;127.520;2022-10-31T03:59:21;80.25;;;52.45;;
55545;SDS011;44768;50.298;127.520;2022-10-31T04:04:24;78.07;;;53.63;;
55545;SDS011;44768;50.298;127.520;2022-10-31T04:09:27;75.28;;;50.15;;
55545;SDS011;44768;50.298;127.520;2022-10-31T04:14:29;72.93;;;48.60;;
55545;SDS011;44768;50.298;127.520;2022-10-31T04:19:32;77.60;;;50.75;;
55545;SDS011;44768;50.298;127.520;2022-10-31T04:29:35;79.05;;;51.05;;
55545;SDS011;44768;50.298;127.520;2022-10-31T04:34:36;75.20;;;51.70;;
55545;SDS011;44768;50.298;127.520;2022-10-31T04:39:37;77.87;;;53.67;;
55545;SDS011;44768;50.298;127.520;2022-10-31T04:44:39;89.67;;;53.90;;
55545;SDS011;44768;50.298;127.520;2022-10-31T04:49:46;73.95;;;50.92;;
55545;SDS011;44768;50.298;127.520;2022-10-31T05:00:07;74.57;;;50.72;;
55545;SDS011;44768;50.298;127.520;2022-10-31T05:05:10;76.80;;;51.20;;
55545;SDS011;44768;50.298;127.520;2022-10-31T05:15:12;83.25;;;52.97;;
55545;SDS011;44768;50.298;127.520;2022-10-31T05:20:15;78.67;;;53.63;;
55545;SDS011;44768;50.298;127.520;2022-10-31T05:25:17;84.72;;;53.63;;
55545;SDS011;44768;50.298;127.520;2022-10-31T05:30:21;86.32;;;55.33;;
55545;SDS011;44768;50.298;127.520;2022-10-31T05:35:25;76.03;;;52.20;;
55545;SDS011;44768;50.298;127.520;2022-10-31T05:40:26;82.18;;;56.03;;
55545;SDS011;44768;50.298;127.520;2022-10-31T05:45:28;84.43;;;54.75;;
55545;SDS011;44768;50.298;127.520;2022-10-31T05:50:30;105.18;;;66.90;;
55545;SDS011;44768;50.298;127.520;2022-10-31T05:55:31;85.38;;;55.40;;
55545;SDS011;44768;50.298;127.520;2022-10-31T06:00:33;80.93;;;55.40;;
55545;SDS011;44768;50.298;127.520;2022-10-31T06:05:37;82.82;;;56.60;;
55545;SDS011;44768;50.298;127.520;2022-10-31T06:10:40;87.80;;;58.42;;
55545;SDS011;44768;50.298;127.520;2022-10-31T06:15:41;96.85;;;62.67;;
55545;SDS011;44768;50.298;127.520;2022-10-31T06:20:43;97.78;;;61.80;;
55545;SDS011;44768;50.298;127.520;2022-10-31T06:25:48;93.70;;;61.40;;
55545;SDS011;44768;50.298;127.520;2022-10-31T06:30:50;106.43;;;66.40;;
55545;SDS011;44768;50.298;127.520;2022-10-31T06:35:51;98.43;;;66.38;;
55545;SDS011;44768;50.298;127.520;2022-10-31T06:40:52;91.87;;;64.80;;
55545;SDS011;44768;50.298;127.520;2022-10-31T06:45:53;93.93;;;60.78;;
55545;SDS011;44768;50.298;127.520;2022-10-31T06:50:57;83.33;;;60.23;;
55545;SDS011;44768;50.298;127.520;2022-10-31T06:55:59;81.28;;;53.63;;
55545;SDS011;44768;50.298;127.520;2022-10-31T07:01:00;74.10;;;55.42;;
55545;SDS011;44768;50.298;127.520;2022-10-31T07:06:02;75.83;;;52.63;;
55545;SDS011;44768;50.298;127.520;2022-10-31T07:11:03;77.53;;;51.60;;
55545;SDS011;44768;50.298;127.520;2022-10-31T07:16:06;77.05;;;52.50;;
55545;SDS011;44768;50.298;127.520;2022-10-31T07:21:07;74.85;;;50.60;;
55545;SDS011;44768;50.298;127.520;2022-10-31T07:26:09;71.57;;;49.43;;
55545;SDS011;44768;50.298;127.520;2022-10-31T07:31:10;67.60;;;45.55;;
55545;SDS011;44768;50.298;127.520;2022-10-31T07:36:12;69.88;;;47.97;;
55545;SDS011;44768;50.298;127.520;2022-10-31T07:41:13;68.10;;;48.90;;
55545;SDS011;44768;50.298;127.520;2022-10-31T07:46:14;71.23;;;51.47;;
55545;SDS011;44768;50.298;127.520;2022-10-31T07:51:15;67.07;;;47.70;;
55545;SDS011;44768;50.298;127.520;2022-10-31T07:56:17;73.22;;;49.33;;
55545;SDS011;44768;50.298;127.520;2022-10-31T08:01:18;67.32;;;47.53;;
55545;SDS011;44768;50.298;127.520;2022-10-31T08:06:19;67.25;;;47.72;;
55545;SDS011;44768;50.298;127.520;2022-10-31T08:11:21;68.33;;;48.17;;
55545;SDS011;44768;50.298;127.520;2022-10-31T08:16:22;75.80;;;51.75;;
55545;SDS011;44768;50.298;127.520;2022-10-31T08:21:23;74.57;;;51.10;;
55545;SDS011;44768;50.298;127.520;2022-10-31T08:26:25;76.10;;;52.43;;
55545;SDS011;44768;50.298;127.520;2022-10-31T08:31:26;73.38;;;51.22;;
55545;SDS011;44768;50.298;127.520;2022-10-31T08:36:28;69.88;;;48.92;;
55545;SDS011;44768;50.298;127.520;2022-10-31T08:41:29;76.03;;;52.17;;
55545;SDS011;44768;50.298;127.520;2022-10-31T08:46:30;77.00;;;52.10;;
55545;SDS011;44768;50.298;127.520;2022-10-31T08:51:32;75.18;;;50.50;;
55545;SDS011;44768;50.298;127.520;2022-10-31T08:56:33;74.50;;;49.87;;
55545;SDS011;44768;50.298;127.520;2022-10-31T09:01:34;69.33;;;47.87;;
55545;SDS011;44768;50.298;127.520;2022-10-31T09:06:35;76.77;;;52.83;;
55545;SDS011;44768;50.298;127.520;2022-10-31T09:11:36;79.20;;;51.90;;
55545;SDS011;44768;50.298;127.520;2022-10-31T09:16:38;67.72;;;47.65;;
55545;SDS011;44768;50.298;127.520;2022-10-31T09:21:39;62.57;;;44.83;;
55545;SDS011;44768;50.298;127.520;2022-10-31T09:32:01;61.35;;;42.92;;
55545;SDS011;44768;50.298;127.520;2022-10-31T09:42:28;61.15;;;42.40;;
55545;SDS011;44768;50.298;127.520;2022-10-31T09:58:03;60.80;;;41.10;;
55545;SDS011;44768;50.298;127.520;2022-10-31T10:34:54;68.20;;;43.92;;
55545;SDS011;44768;50.298;127.520;2022-10-31T11:01:15;78.07;;;49.20;;
55545;SDS011;44768;50.298;127.520;2022-10-31T11:32:46;107.45;;;55.42;;
55545;SDS011;44768;50.298;127.520;2022-10-31T11:58:55;89.07;;;43.83;;
55545;SDS011;44768;50.298;127.520;2022-10-31T12:04:04;87.05;;;46.65;;
55545;SDS011;44768;50.298;127.520;2022-10-31T12:09:15;91.57;;;46.42;;
55545;SDS011;44768;50.298;127.520;2022-10-31T12:30:40;83.50;;;43.15;;
55545;SDS011;44768;50.298;127.520;2022-10-31T12:46:25;74.25;;;40.35;;
55545;SDS011;44768;50.298;127.520;2022-10-31T12:57:23;70.22;;;36.67;;
55545;SDS011;44768;50.298;127.520;2022-10-31T13:08:03;69.70;;;37.08;;
55545;SDS011;44768;50.298;127.520;2022-10-31T13:13:06;72.85;;;36.70;;
55545;SDS011;44768;50.298;127.520;2022-10-31T13:44:51;64.05;;;31.02;;
55545;SDS011;44768;50.298;127.520;2022-10-31T13:55:30;61.53;;;28.90;;
55545;SDS011;44768;50.298;127.520;2022-10-31T14:00:31;59.17;;;28.83;;
55545;SDS011;44768;50.298;127.520;2022-10-31T14:05:37;47.80;;;26.50;;
55545;SDS011;44768;50.298;127.520;2022-10-31T14:10:38;54.77;;;26.37;;
55545;SDS011;44768;50.298;127.520;2022-10-31T14:15:57;52.03;;;24.27;;
55545;SDS011;44768;50.298;127.520;2022-10-31T14:20:59;45.15;;;22.65;;
55545;SDS011;44768;50.298;127.520;2022-10-31T14:47:30;43.42;;;16.73;;
55545;SDS011;44768;50.298;127.520;2022-10-31T14:52:35;34.10;;;16.98;;
55545;SDS011;44768;50.298;127.520;2022-10-31T14:57:36;31.00;;;15.98;;
55545;SDS011;44768;50.298;127.520;2022-10-31T15:02:54;37.05;;;15.43;;
55545;SDS011;44768;50.298;127.520;2022-10-31T15:07:58;33.72;;;15.30;;
55545;SDS011;44768;50.298;127.520;2022-10-31T15:13:10;30.08;;;15.02;;
55545;SDS011;44768;50.298;127.520;2022-10-31T15:18:16;29.70;;;14.18;;
55545;SDS011;44768;50.298;127.520;2022-10-31T15:29:05;26.08;;;12.63;;
55545;SDS011;44768;50.298;127.520;2022-10-31T15:34:12;28.38;;;12.32;;
55545;SDS011;44768;50.298;127.520;2022-10-31T15:50:22;21.48;;;11.60;;
55545;SDS011;44768;50.298;127.520;2022-10-31T15:55:24;25.98;;;12.55;;
55545;SDS011;44768;50.298;127.520;2022-10-31T16:00:29;23.77;;;12.35;;
55545;SDS011;44768;50.298;127.520;2022-10-31T16:05:36;24.17;;;12.52;;
55545;SDS011;44768;50.298;127.520;2022-10-31T16:21:37;22.90;;;11.52;;
55545;SDS011;44768;50.298;127.520;2022-10-31T16:27:03;14.60;;;8.63;;
55545;SDS011;44768;50.298;127.520;2022-10-31T16:37:27;10.85;;;6.60;;
55545;SDS011;44768;50.298;127.520;2022-10-31T16:42:47;15.13;;;7.07;;
55545;SDS011;44768;50.298;127.520;2022-10-31T16:53:09;7.97;;;5.15;;
55545;SDS011;44768;50.298;127.520;2022-10-31T16:58:14;12.52;;;7.18;;
55545;SDS011;44768;50.298;127.520;2022-10-31T17:08:54;19.63;;;9.13;;
55545;SDS011;44768;50.298;127.520;2022-10-31T17:13:55;22.87;;;11.27;;
55545;SDS011;44768;50.298;127.520;2022-10-31T17:24:17;24.60;;;10.35;;
55545;SDS011;44768;50.298;127.520;2022-10-31T17:29:19;9.93;;;6.93;;
55545;SDS011;44768;50.298;127.520;2022-10-31T17:34:20;10.93;;;5.77;;
55545;SDS011;44768;50.298;127.520;2022-10-31T17:39:40;18.67;;;7.93;;
55545;SDS011;44768;50.298;127.520;2022-10-31T17:55:39;21.73;;;10.10;;
55545;SDS011;44768;50.298;127.520;2022-10-31T18:00:40;14.93;;;9.13;;
55545;SDS011;44768;50.298;127.520;2022-10-31T18:11:20;10.32;;;3.78;;
55545;SDS011;44768;50.298;127.520;2022-10-31T18:16:22;7.57;;;5.03;;
55545;SDS011;44768;50.298;127.520;2022-10-31T18:21:23;17.30;;;10.23;;
55545;SDS011;44768;50.298;127.520;2022-10-31T18:31:26;15.68;;;8.65;;
55545;SDS011;44768;50.298;127.520;2022-10-31T18:42:06;12.77;;;8.77;;
55545;SDS011;44768;50.298;127.520;2022-10-31T18:47:07;14.47;;;9.30;;
55545;SDS011;44768;50.298;127.520;2022-10-31T18:57:28;15.82;;;9.40;;
55545;SDS011;44768;50.298;127.520;2022-10-31T19:02:48;18.23;;;10.52;;
55545;SDS011;44768;50.298;127.520;2022-10-31T19:07:49;13.80;;;8.50;;
55545;SDS011;44768;50.298;127.520;2022-10-31T19:12:50;14.20;;;9.43;;
55545;SDS011;44768;50.298;127.520;2022-10-31T19:17:51;15.70;;;10.93;;
55545;SDS011;44768;50.298;127.520;2022-10-31T19:28:12;15.85;;;10.70;;
55545;SDS011;44768;50.298;127.520;2022-10-31T19:33:33;20.25;;;13.25;;
55545;SDS011;44768;50.298;127.520;2022-10-31T19:43:36;18.25;;;12.63;;
55545;SDS011;44768;50.298;127.520;2022-10-31T19:48:38;17.53;;;11.70;;
55545;SDS011;44768;50.298;127.520;2022-10-31T19:53:40;19.90;;;12.07;;
55545;SDS011;44768;50.298;127.520;2022-10-31T19:58:41;17.05;;;11.80;;
55545;SDS011;44768;50.298;127.520;2022-10-31T20:04:01;15.93;;;11.00;;
55545;SDS011;44768;50.298;127.520;2022-10-31T20:09:03;16.83;;;10.10;;
55545;SDS011;44768;50.298;127.520;2022-10-31T20:14:04;18.42;;;11.38;;
55545;SDS011;44768;50.298;127.520;2022-10-31T20:19:06;19.33;;;11.88;;
55545;SDS011;44768;50.298;127.520;2022-10-31T20:24:08;14.93;;;10.77;;
55545;SDS011;44768;50.298;127.520;2022-10-31T20:29:13;17.50;;;10.80;;
55545;SDS011;44768;50.298;127.520;2022-10-31T20:34:16;15.13;;;10.52;;
55545;SDS011;44768;50.298;127.520;2022-10-31T20:39:17;13.27;;;9.65;;
55545;SDS011;44768;50.298;127.520;2022-10-31T20:44:37;16.42;;;10.82;;
55545;SDS011;44768;50.298;127.520;2022-10-31T20:49:39;15.70;;;11.67;;
55545;SDS011;44768;50.298;127.520;2022-10-31T20:54:40;24.47;;;15.87;;
55545;SDS011;44768;50.298;127.520;2022-10-31T20:59:41;25.63;;;16.63;;
55545;SDS011;44768;50.298;127.520;2022-10-31T21:04:42;19.57;;;14.33;;
55545;SDS011;44768;50.298;127.520;2022-10-31T21:09:43;19.87;;;12.70;;
55545;SDS011;44768;50.298;127.520;2022-10-31T21:14:44;15.95;;;9.88;;
55545;SDS011;44768;50.298;127.520;2022-10-31T21:19:45;17.40;;;11.53;;
55545;SDS011;44768;50.298;127.520;2022-10-31T21:25:09;12.13;;;7.18;;
55545;SDS011;44768;50.298;127.520;2022-10-31T21:35:51;9.38;;;6.65;;
55545;SDS011;44768;50.298;127.520;2022-10-31T21:41:06;9.05;;;5.90;;
55545;SDS011;44768;50.298;127.520;2022-10-31T21:46:09;8.73;;;5.63;;
55545;SDS011;44768;50.298;127.520;2022-10-31T21:51:14;7.30;;;5.25;;
55545;SDS011;44768;50.298;127.520;2022-10-31T21:56:16;7.57;;;4.60;;
55545;SDS011;44768;50.298;127.520;2022-10-31T22:01:17;5.33;;;4.37;;
55545;SDS011;44768;50.298;127.520;2022-10-31T22:06:18;6.05;;;4.63;;
55545;SDS011;44768;50.298;127.520;2022-10-31T22:11:19;6.60;;;4.07;;
55545;SDS011;44768;50.298;127.520;2022-10-31T22:16:39;4.75;;;3.47;;
55545;SDS011;44768;50.298;127.520;2022-10-31T22:21:44;6.25;;;4.75;;
55545;SDS011;44768;50.298;127.520;2022-10-31T22:26:46;6.68;;;4.90;;
55545;SDS011;44768;50.298;127.520;2022-10-31T22:31:49;5.85;;;3.83;;
55545;SDS011;44768;50.298;127.520;2022-10-31T22:36:50;9.30;;;4.00;;
55545;SDS011;44768;50.298;127.520;2022-10-31T22:47:32;11.70;;;5.10;;
55545;SDS011;44768;50.298;127.520;2022-10-31T22:52:33;12.73;;;4.77;;
55545;SDS011;44768;50.298;127.520;2022-10-31T22:57:34;10.97;;;4.93;;
55545;SDS011;44768;50.298;127.520;2022-10-31T23:02:35;9.98;;;6.13;;
55545;SDS011;44768;50.298;127.520;2022-10-31T23:07:38;12.20;;;5.53;;
55545;SDS011;44768;50.298;127.520;2022-10-31T23:12:39;7.65;;;4.70;;
55545;SDS011;44768;50.298;127.520;2022-10-31T23:17:58;11.65;;;5.28;;
55545;SDS011;44768;50.298;127.520;2022-10-31T23:28:19;16.42;;;9.13;;
55545;SDS011;44768;50.298;127.520;2022-10-31T23:39:00;13.10;;;8.15;;
55545;SDS011;44768;50.298;127.520;2022-10-31T23:44:20;18.73;;;9.05;;
55545;SDS011;44768;50.298;127.520;2022-10-31T23:49:21;18.53;;;9.13;;
55545;SDS011;44768;50.298;127.520;2022-10-31T23:54:22;17.10;;;10.50;;
